Time;durP1;ratioP1;P1;durP2;ratioP2;P2;SDS_P1;SDS_P2;PMS_P1;PMS_P2;Temp;Humidity;BMP_temperature;BMP_pressure;BME280_temperature;BME280_humidity;BME280_pressure;Samples;Min_cycle;Max_cycle;Signal;HPM_P1;HPM_P2
2022/01/15 00:00:20;;;;;;;0.30;0.30;;;-0.60;99.90;;;;;;5034357;28;20502;-67
2022/01/15 00:02:46;;;;;;;1.45;1.35;;;-0.60;99.90;;;;;;5033384;28;20121;-68
2022/01/15 00:05:12;;;;;;;0.20;0.20;;;-0.60;99.90;;;;;;5034291;28;20458;-68
2022/01/15 00:07:39;;;;;;;0.45;0.45;;;-0.50;99.90;;;;;;5033203;28;20049;-68
2022/01/15 00:10:06;;;;;;;0.98;0.90;;;-0.60;99.90;;;;;;5033070;28;20025;-68
2022/01/15 00:12:39;;;;;;;7.07;1.92;;;-0.60;99.90;;;;;;5032937;28;20563;-68
2022/01/15 00:15:18;;;;;;;0.52;0.52;;;-0.60;99.90;;;;;;5017220;28;20032;-68
2022/01/15 00:20:10;;;;;;;0.55;0.55;;;-0.60;99.90;;;;;;5034105;28;20037;-69
2022/01/15 00:22:36;;;;;;;0.20;0.20;;;-0.60;99.90;;;;;;5033904;28;20035;-69
2022/01/15 00:25:02;;;;;;;1.35;0.55;;;-0.70;99.90;;;;;;5033897;28;20029;-68
2022/01/15 00:27:28;;;;;;;0.80;0.75;;;-0.70;99.90;;;;;;5033889;28;20030;-69
2022/01/15 00:29:54;;;;;;;3.05;0.60;;;-0.60;99.90;;;;;;5033953;28;20037;-68
2022/01/15 00:32:19;;;;;;;1.80;1.70;;;-0.60;99.90;;;;;;5034183;28;20033;-68
2022/01/15 00:34:45;;;;;;;1.02;0.98;;;-0.60;99.90;;;;;;5034071;28;20033;-68
2022/01/15 00:37:11;;;;;;;2.28;2.17;;;-0.50;99.90;;;;;;5033621;28;20077;-68
2022/01/15 00:39:37;;;;;;;0.13;0.13;;;-0.50;99.90;;;;;;5033631;28;20029;-68
2022/01/15 00:42:03;;;;;;;1.48;1.38;;;-0.50;99.90;;;;;;5032594;28;20040;-69
2022/01/15 00:44:29;;;;;;;0.20;0.20;;;-0.50;99.90;;;;;;5034153;28;20033;-68
2022/01/15 00:46:54;;;;;;;0.55;0.55;;;-0.50;99.90;;;;;;5033436;28;20403;-69
2022/01/15 00:49:20;;;;;;;0.22;0.22;;;-0.50;99.90;;;;;;5033527;28;20102;-68
2022/01/15 00:51:46;;;;;;;0.77;0.77;;;-0.50;99.90;;;;;;5033328;28;20456;-68
2022/01/15 00:54:12;;;;;;;0.50;0.50;;;-0.50;99.90;;;;;;5031513;28;20041;-69
2022/01/15 00:56:37;;;;;;;4.38;1.58;;;-0.50;99.90;;;;;;5016242;28;20072;-69
2022/01/15 00:59:03;;;;;;;2.40;1.35;;;-0.50;99.90;;;;;;5032213;28;20050;-69
2022/01/15 01:01:32;;;;;;;1.15;1.08;;;-0.50;99.90;;;;;;5031989;28;20061;-68
2022/01/15 01:03:58;;;;;;;0.20;0.20;;;-0.40;99.90;;;;;;5031945;28;20036;-68
2022/01/15 01:06:24;;;;;;;0.20;0.20;;;-0.40;99.90;;;;;;5030662;28;20033;-68
2022/01/15 01:08:50;;;;;;;0.65;0.65;;;-0.50;99.90;;;;;;5033448;28;20034;-69
2022/01/15 01:11:22;;;;;;;1.23;1.13;;;-0.50;99.90;;;;;;5033245;28;20033;-68
2022/01/15 01:24:30;;;;;;;2.05;1.95;;;-0.40;99.90;;;;;;5032953;28;20029;-68
2022/01/15 01:29:33;;;;;;;2.85;2.63;;;-0.50;99.90;;;;;;5032704;28;20029;-68
2022/01/15 01:32:15;;;;;;;2.17;1.88;;;-0.50;99.90;;;;;;5016486;28;20045;-69
2022/01/15 01:34:43;;;;;;;0.10;0.10;;;-0.50;99.90;;;;;;5031599;28;20068;-69
2022/01/15 01:37:16;;;;;;;0.40;0.40;;;-0.40;99.90;;;;;;5015383;28;20045;-69
2022/01/15 01:39:49;;;;;;;0.10;0.10;;;-0.40;99.90;;;;;;5031299;28;20029;-69
2022/01/15 01:45:11;;;;;;;1.27;0.80;;;-0.30;99.90;;;;;;5031521;28;20071;-69
2022/01/15 01:47:40;;;;;;;0.32;0.32;;;-0.30;99.90;;;;;;5032482;28;20034;-67
2022/01/15 01:50:14;;;;;;;7.57;2.95;;;-0.30;99.90;;;;;;5030928;28;20076;-67
2022/01/15 01:52:42;;;;;;;1.55;1.45;;;-0.30;99.90;;;;;;5031093;28;20037;-68
2022/01/15 01:55:08;;;;;;;1.13;1.13;;;-0.20;99.90;;;;;;5030999;28;20025;-67
2022/01/15 01:57:35;;;;;;;0.90;0.90;;;-0.20;99.90;;;;;;5032277;28;20172;-68
2022/01/15 02:00:07;;;;;;;1.55;1.45;;;-0.20;99.90;;;;;;5030726;28;20029;-68
2022/01/15 02:02:33;;;;;;;5.53;2.00;;;-0.30;99.90;;;;;;5032011;28;20502;-67
2022/01/15 02:04:59;;;;;;;0.50;0.50;;;-0.20;99.90;;;;;;5032353;28;20037;-68
2022/01/15 02:07:26;;;;;;;0.15;0.15;;;-0.20;99.90;;;;;;5032271;28;20044;-68
2022/01/15 02:09:54;;;;;;;1.65;1.55;;;-0.20;99.90;;;;;;5032090;28;20083;-68
2022/01/15 02:12:20;;;;;;;0.75;0.55;;;-0.20;99.90;;;;;;5030657;28;20127;-68
2022/01/15 02:14:46;;;;;;;0.10;0.10;;;-0.20;99.90;;;;;;5030762;28;20105;-68
2022/01/15 02:17:17;;;;;;;0.65;0.65;;;-0.20;99.90;;;;;;5030285;28;20385;-68
2022/01/15 02:20:09;;;;;;;0.55;0.55;;;-0.20;99.90;;;;;;5032257;28;20108;-68
2022/01/15 02:25:17;;;;;;;0.93;0.93;;;-0.20;99.90;;;;;;5030638;28;20030;-68
2022/01/15 02:27:42;;;;;;;0.20;0.20;;;-0.20;99.90;;;;;;5032243;28;20039;-68
2022/01/15 02:30:09;;;;;;;0.38;0.38;;;-0.20;99.90;;;;;;5031941;28;20105;-68
2022/01/15 02:32:36;;;;;;;0.10;0.10;;;-0.20;99.90;;;;;;5030491;28;20458;-68
2022/01/15 02:35:04;;;;;;;0.47;0.47;;;-0.20;99.90;;;;;;5030577;28;20029;-68
2022/01/15 02:37:30;;;;;;;0.20;0.20;;;-0.20;99.90;;;;;;5031546;28;20390;-68
2022/01/15 02:39:57;;;;;;;1.10;1.02;;;-0.20;99.90;;;;;;5030588;28;20467;-68
2022/01/15 02:42:26;;;;;;;0.20;0.20;;;-0.10;99.90;;;;;;5031556;28;20286;-68
2022/01/15 02:44:59;;;;;;;0.38;0.38;;;-0.10;99.90;;;;;;5014599;28;20526;-68
2022/01/15 02:50:10;;;;;;;0.77;0.77;;;-0.20;99.90;;;;;;5031437;28;20052;-68
2022/01/15 02:52:36;;;;;;;17.13;2.17;;;-0.20;99.90;;;;;;5030666;28;20095;-68
2022/01/15 02:55:02;;;;;;;0.20;0.20;;;-0.20;99.90;;;;;;5031291;28;20025;-68
2022/01/15 02:57:28;;;;;;;0.08;0.08;;;-0.20;99.90;;;;;;5031372;28;20124;-68
2022/01/15 02:59:54;;;;;;;0.85;0.85;;;-0.10;99.90;;;;;;5031439;28;20117;-68
2022/01/15 03:02:19;;;;;;;2.80;1.17;;;-0.20;99.90;;;;;;5031452;28;20425;-68
2022/01/15 03:04:45;;;;;;;0.10;0.10;;;-0.10;99.90;;;;;;5022760;28;20022;-68
2022/01/15 03:07:11;;;;;;;2.33;2.15;;;-0.10;99.90;;;;;;5011387;28;20033;-68
2022/01/15 03:09:40;;;;;;;0.10;0.10;;;-0.10;99.90;;;;;;5011911;28;20072;-68
2022/01/15 03:12:08;;;;;;;7.15;2.47;;;0.00;99.90;;;;;;5010350;28;20030;-68
2022/01/15 03:14:34;;;;;;;0.55;0.52;;;-0.10;99.90;;;;;;5010461;28;20438;-68
2022/01/15 03:17:00;;;;;;;1.13;1.13;;;0.00;99.90;;;;;;5010238;28;20026;-68
2022/01/15 03:19:25;;;;;;;0.57;0.57;;;0.00;99.90;;;;;;5010206;28;20030;-68
2022/01/15 03:21:51;;;;;;;0.20;0.20;;;0.00;99.90;;;;;;5011471;28;20069;-68
2022/01/15 03:24:17;;;;;;;1.85;0.93;;;0.00;99.90;;;;;;5011290;28;20037;-68
2022/01/15 03:26:42;;;;;;;0.32;0.32;;;0.00;99.90;;;;;;4993734;28;20756;-68
2022/01/15 03:29:08;;;;;;;4.93;1.48;;;0.10;99.90;;;;;;5011500;28;20063;-68
2022/01/15 03:31:34;;;;;;;0.15;0.15;;;0.00;99.90;;;;;;5015478;28;20026;-69
2022/01/15 03:34:00;;;;;;;1.33;1.23;;;0.10;99.90;;;;;;5015049;28;20034;-68
2022/01/15 03:36:25;;;;;;;0.50;0.50;;;0.00;99.90;;;;;;5014966;28;20034;-68
2022/01/15 03:38:51;;;;;;;0.40;0.40;;;0.10;99.90;;;;;;5015104;28;20029;-68
2022/01/15 03:41:17;;;;;;;4.13;2.20;;;0.10;99.90;;;;;;5013531;28;20030;-67
2022/01/15 03:43:43;;;;;;;1.67;1.58;;;0.10;99.90;;;;;;5015133;28;20045;-68
2022/01/15 03:46:09;;;;;;;0.90;0.90;;;0.10;99.90;;;;;;5015115;28;20030;-67
2022/01/15 03:48:35;;;;;;;4.53;3.92;;;0.10;99.90;;;;;;5014410;28;20053;-68
2022/01/15 03:51:03;;;;;;;0.20;0.20;;;0.00;99.90;;;;;;5014764;28;20026;-68
2022/01/15 03:53:29;;;;;;;2.72;0.98;;;0.00;99.90;;;;;;5013608;28;20084;-68
2022/01/15 03:55:55;;;;;;;1.17;1.15;;;0.10;99.90;;;;;;5013406;28;20072;-68
2022/01/15 03:58:21;;;;;;;0.30;0.30;;;0.10;99.90;;;;;;5014553;28;20038;-68
2022/01/15 04:00:47;;;;;;;0.28;0.28;;;0.10;99.90;;;;;;5014745;28;20022;-68
2022/01/15 04:03:13;;;;;;;3.40;1.45;;;0.10;99.90;;;;;;5014345;28;20037;-68
2022/01/15 04:05:39;;;;;;;1.83;1.73;;;0.10;99.90;;;;;;5014457;28;20409;-68
2022/01/15 04:08:07;;;;;;;0.20;0.20;;;0.10;99.90;;;;;;5014534;28;20072;-68
2022/01/15 04:10:33;;;;;;;1.35;0.73;;;0.00;99.90;;;;;;5014323;28;20096;-68
2022/01/15 04:12:59;;;;;;;0.40;0.40;;;0.10;99.90;;;;;;4996875;28;20445;-68
2022/01/15 04:15:25;;;;;;;0.20;0.20;;;0.10;99.90;;;;;;5014496;28;20030;-68
2022/01/15 04:17:51;;;;;;;0.20;0.20;;;0.20;99.90;;;;;;5014396;28;20045;-68
2022/01/15 04:20:21;;;;;;;4.28;2.28;;;0.20;99.90;;;;;;5012764;28;20038;-68
2022/01/15 04:22:49;;;;;;;1.75;1.65;;;0.20;99.90;;;;;;5014204;28;20100;-68
2022/01/15 04:25:15;;;;;;;0.63;0.63;;;0.20;99.90;;;;;;5013987;28;20092;-68
2022/01/15 04:27:42;;;;;;;1.17;0.63;;;0.20;99.90;;;;;;4996635;28;20053;-68
2022/01/15 04:30:09;;;;;;;0.08;0.08;;;0.10;99.90;;;;;;5014117;28;20034;-68
2022/01/15 04:32:35;;;;;;;1.95;1.83;;;0.10;99.90;;;;;;5013000;28;20077;-68
2022/01/15 04:35:01;;;;;;;0.65;0.65;;;0.10;99.90;;;;;;5014132;28;20080;-68
2022/01/15 04:37:36;;;;;;;2.38;2.28;;;0.10;99.90;;;;;;5014297;28;20406;-68
2022/01/15 04:40:05;;;;;;;1.77;1.17;;;0.10;99.90;;;;;;5012486;28;20083;-68
2022/01/15 04:42:31;;;;;;;2.50;2.40;;;0.10;99.90;;;;;;5013815;28;20560;-68
2022/01/15 04:44:57;;;;;;;0.10;0.10;;;0.20;99.90;;;;;;5014036;28;20113;-68
2022/01/15 04:47:23;;;;;;;0.75;0.75;;;0.20;99.90;;;;;;5013831;28;20038;-67
2022/01/15 04:49:48;;;;;;;2.17;2.05;;;0.70;99.90;;;;;;5012142;28;20058;-68
2022/01/15 04:52:14;;;;;;;5.28;2.63;;;0.90;99.90;;;;;;5023313;28;20625;-68
2022/01/15 04:54:40;;;;;;;1.20;1.10;;;0.70;99.90;;;;;;5033239;28;20033;-68
2022/01/15 04:57:06;;;;;;;0.22;0.22;;;0.50;99.90;;;;;;5015749;28;20029;-68
2022/01/15 04:59:31;;;;;;;0.65;0.55;;;0.40;99.90;;;;;;5033249;28;20386;-68
2022/01/15 05:01:57;;;;;;;7.68;2.28;;;0.20;99.90;;;;;;5033087;28;20065;-68
2022/01/15 05:04:23;;;;;;;0.88;0.88;;;0.30;99.90;;;;;;5033180;28;20033;-68
2022/01/15 05:06:49;;;;;;;2.03;1.90;;;0.30;99.90;;;;;;5026603;28;20545;-68
2022/01/15 05:09:15;;;;;;;3.15;2.03;;;0.30;99.90;;;;;;5013582;28;20040;-68
2022/01/15 05:12:27;;;;;;;0.10;0.10;;;0.00;99.90;;;;;;5013315;28;20507;-68
2022/01/15 05:14:29;;;;;;;0.93;0.90;;;0.00;99.90;;;;;;5009875;28;20566;-68
2022/01/15 05:16:55;;;;;;;0.10;0.10;;;0.00;99.90;;;;;;5013209;28;20549;-68
2022/01/15 05:19:21;;;;;;;0.10;0.10;;;0.10;99.90;;;;;;5011718;28;20042;-68
2022/01/15 05:21:47;;;;;;;0.10;0.10;;;0.10;99.90;;;;;;5012933;28;20030;-68
2022/01/15 05:24:13;;;;;;;2.20;1.92;;;0.10;99.90;;;;;;5012831;28;20034;-68
2022/01/15 05:26:39;;;;;;;0.75;0.75;;;0.10;99.90;;;;;;5012839;28;20037;-68
2022/01/15 05:29:04;;;;;;;0.30;0.30;;;0.10;99.90;;;;;;5012893;28;20118;-68
2022/01/15 05:31:30;;;;;;;0.77;0.77;;;0.20;99.90;;;;;;5012856;28;20041;-68
2022/01/15 05:33:56;;;;;;;0.28;0.28;;;0.20;99.90;;;;;;5012952;28;20072;-68
2022/01/15 05:36:22;;;;;;;0.40;0.40;;;0.10;99.90;;;;;;5012686;28;20033;-68
2022/01/15 05:38:48;;;;;;;0.28;0.28;;;0.10;99.90;;;;;;5011480;28;20588;-68
2022/01/15 05:41:15;;;;;;;0.10;0.10;;;0.10;99.90;;;;;;5012480;28;20050;-68
2022/01/15 05:43:40;;;;;;;0.10;0.10;;;0.10;99.90;;;;;;5012723;28;20066;-68
2022/01/15 05:46:06;;;;;;;4.68;2.42;;;0.10;99.90;;;;;;5012752;28;20608;-68
2022/01/15 05:48:32;;;;;;;0.10;0.10;;;0.00;99.90;;;;;;5012647;28;20046;-69
2022/01/15 05:50:58;;;;;;;0.10;0.10;;;0.00;99.90;;;;;;5012590;28;20037;-69
2022/01/15 05:53:23;;;;;;;0.20;0.20;;;0.00;99.90;;;;;;5011622;28;20046;-69
2022/01/15 05:55:49;;;;;;;2.17;2.08;;;0.10;99.90;;;;;;5012472;28;20026;-68
2022/01/15 05:58:15;;;;;;;0.10;0.10;;;0.10;99.90;;;;;;5012622;28;20372;-68
2022/01/15 06:00:41;;;;;;;0.32;0.32;;;0.10;99.90;;;;;;5012432;28;20376;-68
2022/01/15 06:03:06;;;;;;;5.47;2.10;;;0.10;99.90;;;;;;5012485;28;20371;-68
2022/01/15 06:05:32;;;;;;;0.80;0.80;;;0.00;99.90;;;;;;5012419;28;20122;-68
2022/01/15 06:07:58;;;;;;;1.95;1.60;;;0.10;99.90;;;;;;5012561;28;20041;-68
2022/01/15 06:10:24;;;;;;;0.40;0.40;;;0.00;99.90;;;;;;5012088;28;20057;-68
2022/01/15 06:12:49;;;;;;;0.70;0.70;;;0.10;99.90;;;;;;5012242;28;20029;-68
2022/01/15 06:15:16;;;;;;;0.52;0.52;;;0.10;99.90;;;;;;5012009;28;20034;-68
2022/01/15 06:17:43;;;;;;;0.10;0.10;;;0.20;99.90;;;;;;5011315;28;20029;-68
2022/01/15 06:20:12;;;;;;;0.38;0.38;;;0.20;99.90;;;;;;5012298;28;20062;-68
2022/01/15 06:22:38;;;;;;;1.05;1.02;;;0.20;99.90;;;;;;5011972;28;20033;-68
2022/01/15 06:25:05;;;;;;;1.60;1.50;;;0.20;99.90;;;;;;5011882;28;20129;-68
2022/01/15 06:27:31;;;;;;;3.03;1.75;;;0.30;99.90;;;;;;5010888;28;20109;-68
2022/01/15 06:29:58;;;;;;;0.20;0.20;;;0.30;99.90;;;;;;5012031;28;20025;-68
2022/01/15 06:32:26;;;;;;;1.90;1.80;;;0.40;99.90;;;;;;5012183;28;20036;-68
2022/01/15 06:34:52;;;;;;;3.92;2.00;;;0.40;99.90;;;;;;5011934;28;20046;-69
2022/01/15 06:37:18;;;;;;;3.10;2.78;;;0.40;99.90;;;;;;5011700;28;20097;-68
2022/01/15 06:39:45;;;;;;;0.90;0.77;;;0.40;99.90;;;;;;5011787;28;20056;-68
2022/01/15 06:42:11;;;;;;;0.32;0.32;;;0.50;99.90;;;;;;5011648;28;20128;-68
2022/01/15 06:44:36;;;;;;;6.40;1.75;;;0.50;99.90;;;;;;5011695;28;20105;-68
2022/01/15 06:47:03;;;;;;;0.13;0.13;;;0.30;99.90;;;;;;5011990;28;20029;-68
2022/01/15 06:49:29;;;;;;;0.77;0.77;;;0.40;99.90;;;;;;5010207;28;20194;-68
2022/01/15 06:51:54;;;;;;;0.88;0.82;;;0.40;99.90;;;;;;5013933;28;20133;-69
2022/01/15 06:54:20;;;;;;;1.75;0.80;;;0.40;99.90;;;;;;5031241;28;20037;-72
2022/01/15 06:56:46;;;;;;;2.83;2.58;;;0.50;99.90;;;;;;5031492;28;20030;-70
2022/01/15 06:59:12;;;;;;;0.13;0.13;;;0.40;99.90;;;;;;5031284;28;20029;-70
2022/01/15 07:01:37;;;;;;;0.20;0.20;;;0.50;99.90;;;;;;5031641;28;20033;-72
2022/01/15 07:04:03;;;;;;;0.68;0.68;;;0.50;99.90;;;;;;5030747;28;20223;-73
2022/01/15 07:06:29;;;;;;;3.63;3.20;;;0.40;99.90;;;;;;5015535;28;20399;-72
2022/01/15 07:08:55;;;;;;;1.00;1.00;;;0.30;99.90;;;;;;5015663;28;20045;-72
2022/01/15 07:11:20;;;;;;;0.22;0.15;;;0.30;99.90;;;;;;5015376;28;20037;-69
2022/01/15 07:13:46;;;;;;;0.47;0.47;;;0.30;99.90;;;;;;5015184;28;20034;-69
2022/01/15 07:16:12;;;;;;;0.15;0.15;;;0.30;99.90;;;;;;5015271;28;20030;-70
2022/01/15 07:18:38;;;;;;;1.55;1.50;;;0.20;99.90;;;;;;5015548;28;20087;-70
2022/01/15 07:21:03;;;;;;;24.40;2.88;;;0.20;99.90;;;;;;5015497;28;20103;-69
2022/01/15 07:23:29;;;;;;;0.10;0.10;;;0.20;99.90;;;;;;5013863;28;20033;-70
2022/01/15 07:25:55;;;;;;;0.38;0.38;;;0.30;99.90;;;;;;5013910;28;20040;-69
2022/01/15 07:28:20;;;;;;;1.25;1.05;;;0.20;99.90;;;;;;5014182;28;20062;-69
2022/01/15 07:30:46;;;;;;;0.85;0.85;;;0.20;99.90;;;;;;5015118;28;20022;-70
2022/01/15 07:33:13;;;;;;;1.00;1.00;;;0.30;99.90;;;;;;5015269;28;20030;-69
2022/01/15 07:35:39;;;;;;;0.10;0.10;;;0.20;99.90;;;;;;5013887;28;20040;-69
2022/01/15 07:38:05;;;;;;;0.35;0.35;;;0.30;99.90;;;;;;5013829;28;20062;-71
2022/01/15 07:40:31;;;;;;;0.13;0.13;;;0.30;99.90;;;;;;5013614;28;20065;-69
2022/01/15 07:42:57;;;;;;;1.33;1.25;;;0.20;99.90;;;;;;5014839;28;20030;-68
2022/01/15 07:45:22;;;;;;;0.50;0.50;;;0.30;99.90;;;;;;5013657;28;20042;-69
2022/01/15 07:47:48;;;;;;;1.20;1.10;;;0.40;99.90;;;;;;5025231;28;20045;-67
2022/01/15 07:50:23;;;;;;;0.35;0.35;;;0.30;99.90;;;;;;5034422;28;20437;-69
2022/01/15 07:52:54;;;;;;;0.15;0.15;;;0.30;99.90;;;;;;5034669;28;20034;-70
2022/01/15 07:55:21;;;;;;;2.87;1.27;;;0.40;99.90;;;;;;5017239;28;20033;-70
2022/01/15 07:57:47;;;;;;;3.63;3.30;;;0.40;99.90;;;;;;5033228;28;20033;-70
2022/01/15 08:00:15;;;;;;;1.35;1.27;;;0.40;99.90;;;;;;5033409;28;20390;-69
2022/01/15 08:02:41;;;;;;;3.83;3.50;;;0.40;99.90;;;;;;5034161;28;20457;-68
2022/01/15 08:05:11;;;;;;;3.42;2.53;;;0.40;99.90;;;;;;5033279;28;20030;-72
2022/01/15 08:07:38;;;;;;;0.80;0.80;;;0.40;99.90;;;;;;5023485;28;20541;-69
2022/01/15 08:10:06;;;;;;;0.77;0.25;;;0.50;99.90;;;;;;5013184;28;20026;-70
2022/01/15 08:12:33;;;;;;;0.30;0.30;;;0.30;99.90;;;;;;4995385;28;20042;-70
2022/01/15 08:15:00;;;;;;;1.70;1.60;;;0.30;99.90;;;;;;5013268;28;20034;-70
2022/01/15 08:17:26;;;;;;;3.47;3.20;;;0.20;99.90;;;;;;5013237;28;20026;-70
2022/01/15 08:19:51;;;;;;;3.30;1.38;;;0.30;99.90;;;;;;5003890;28;20088;-72
2022/01/15 08:22:17;;;;;;;9.32;3.95;;;0.40;99.90;;;;;;5034122;28;20387;-72
2022/01/15 08:24:43;;;;;;;1.45;1.35;;;1.10;99.90;;;;;;5034536;28;20034;-72
2022/01/15 08:27:09;;;;;;;0.35;0.35;;;1.50;99.90;;;;;;5032992;28;20029;-72
2022/01/15 08:29:34;;;;;;;3.33;3.05;;;1.40;99.90;;;;;;5033595;28;20053;-71
2022/01/15 08:32:00;;;;;;;7.80;2.30;;;1.30;99.90;;;;;;5033580;28;20112;-72
2022/01/15 08:34:26;;;;;;;4.60;4.20;;;1.40;99.90;;;;;;5032731;28;20183;-72
2022/01/15 08:36:52;;;;;;;0.45;0.45;;;1.30;99.90;;;;;;5033707;28;20068;-72
2022/01/15 08:39:18;;;;;;;0.15;0.15;;;1.20;99.90;;;;;;5048839;28;20465;-72
2022/01/15 08:41:48;;;;;;;3.03;2.83;;;1.20;99.90;;;;;;5015806;28;20037;-72
2022/01/15 08:44:16;;;;;;;2.05;1.95;;;1.10;99.90;;;;;;5016820;28;20140;-73
2022/01/15 08:46:43;;;;;;;1.40;1.33;;;0.90;99.90;;;;;;5032181;28;20038;-71
2022/01/15 08:49:09;;;;;;;2.35;1.35;;;1.00;99.90;;;;;;5033341;28;20047;-71
2022/01/15 08:51:34;;;;;;;0.20;0.20;;;1.00;99.90;;;;;;5033401;28;20418;-71
2022/01/15 08:54:00;;;;;;;4.32;2.67;;;1.00;99.90;;;;;;5015753;28;20037;-71
2022/01/15 08:56:26;;;;;;;0.60;0.60;;;1.00;99.90;;;;;;5033161;28;20029;-70
2022/01/15 08:58:52;;;;;;;2.47;1.70;;;1.10;99.90;;;;;;5033322;28;20037;-70
2022/01/15 09:01:17;;;;;;;4.35;3.78;;;1.10;99.90;;;;;;5029967;28;20117;-71
2022/01/15 09:03:43;;;;;;;0.47;0.47;;;1.20;99.90;;;;;;5031844;28;20041;-70
2022/01/15 09:06:10;;;;;;;1.33;1.27;;;1.20;99.90;;;;;;5032859;28;20041;-71
2022/01/15 09:08:36;;;;;;;0.75;0.75;;;1.30;99.90;;;;;;5031658;28;20038;-69
2022/01/15 09:11:02;;;;;;;0.30;0.30;;;1.30;99.90;;;;;;5033049;28;20497;-68
2022/01/15 09:13:29;;;;;;;0.95;0.95;;;1.30;99.90;;;;;;5031570;28;20037;-69
2022/01/15 09:15:56;;;;;;;1.98;1.88;;;1.30;99.90;;;;;;5032716;28;20117;-71
2022/01/15 09:18:21;;;;;;;2.35;2.25;;;1.30;99.90;;;;;;5033166;28;20033;-69
2022/01/15 09:20:48;;;;;;;0.30;0.30;;;1.40;99.90;;;;;;5028142;28;20471;-69
2022/01/15 09:23:14;;;;;;;1.60;1.50;;;1.40;99.90;;;;;;5031696;28;20037;-68
2022/01/15 09:25:40;;;;;;;2.20;2.10;;;1.50;99.90;;;;;;5032807;28;20057;-69
2022/01/15 09:30:51;;;;;;;0.15;0.15;;;1.60;99.90;;;;;;5018221;28;20124;-68
2022/01/15 09:33:17;;;;;;;0.38;0.38;;;1.60;99.90;;;;;;5031271;28;20109;-67
2022/01/15 09:35:43;;;;;;;0.50;0.50;;;1.60;99.90;;;;;;5031542;28;20083;-67
2022/01/15 09:38:10;;;;;;;1.38;1.27;;;1.70;99.90;;;;;;5032687;28;20044;-66
2022/01/15 09:40:38;;;;;;;0.82;0.82;;;1.60;99.90;;;;;;5032253;28;20024;-67
2022/01/15 09:43:04;;;;;;;0.40;0.40;;;1.70;99.90;;;;;;5032453;28;20030;-67
2022/01/15 09:45:35;;;;;;;1.50;0.98;;;1.60;99.90;;;;;;5032123;28;20025;-68
2022/01/15 09:48:11;;;;;;;0.30;0.30;;;1.70;99.90;;;;;;5109484;27;20408;-66
2022/01/15 09:50:43;;;;;;;0.85;0.85;;;1.70;99.90;;;;;;5088951;28;20036;-67
2022/01/15 09:53:16;;;;;;;8.20;4.13;;;1.70;99.90;;;;;;5089113;28;20370;-67
2022/01/15 09:55:43;;;;;;;0.10;0.10;;;1.80;99.90;;;;;;5088855;28;20112;-67
2022/01/15 09:58:10;;;;;;;7.57;1.83;;;1.80;99.90;;;;;;5087618;28;20040;-67
2022/01/15 10:00:35;;;;;;;1.00;1.00;;;1.90;99.90;;;;;;5087868;28;20169;-67
2022/01/15 10:03:02;;;;;;;2.53;1.55;;;2.00;99.90;;;;;;5087478;28;20068;-67
2022/01/15 10:05:28;;;;;;;1.77;1.65;;;2.00;99.90;;;;;;5088982;28;20035;-66
2022/01/15 10:08:04;;;;;;;1.00;1.00;;;2.10;99.90;;;;;;5088767;28;20040;-68
2022/01/15 10:10:33;;;;;;;0.20;0.20;;;2.20;99.90;;;;;;5088624;28;20128;-68
2022/01/15 10:13:21;;;;;;;0.50;0.50;;;2.10;99.90;;;;;;5087475;28;20035;-68
2022/01/15 10:15:59;;;;;;;0.00;0.00;;;2.10;99.90;;;;;;5087366;28;20074;-68
2022/01/15 10:18:32;;;;;;;0.00;0.00;;;2.20;99.90;;;;;;5088411;28;20477;-66
2022/01/15 10:21:23;;;;;;;0.63;0.63;;;2.10;99.90;;;;;;5087207;28;20590;-67
2022/01/15 10:23:54;;;;;;;0.38;0.38;;;2.10;99.90;;;;;;5088676;28;20040;-68
2022/01/15 10:26:22;;;;;;;2.60;1.33;;;2.20;99.90;;;;;;5088429;28;20040;-69
2022/01/15 10:28:56;;;;;;;1.70;1.60;;;2.20;99.90;;;;;;5088385;28;20063;-69
2022/01/15 10:31:26;;;;;;;22.08;11.20;;;2.20;99.90;;;;;;5086801;28;20040;-70
2022/01/15 10:33:52;;;;;;;2.83;2.47;;;1.90;99.90;;;;;;5088475;28;20115;-69
2022/01/15 10:36:25;;;;;;;1.77;1.65;;;2.30;99.90;;;;;;5086889;28;20031;-69
2022/01/15 10:38:51;;;;;;;0.20;0.20;;;2.90;99.90;;;;;;5086973;28;20032;-69
2022/01/15 10:41:36;;;;;;;0.10;0.10;;;3.50;99.90;;;;;;5088072;28;20032;-69
2022/01/15 10:44:33;;;;;;;0.22;0.22;;;3.30;99.90;;;;;;5086798;28;20481;-69
2022/01/15 10:47:16;;;;;;;0.15;0.15;;;3.00;99.90;;;;;;5086196;28;20049;-69
2022/01/15 10:49:44;;;;;;;0.40;0.40;;;2.60;99.90;;;;;;5070155;28;20426;-69
2022/01/15 10:52:25;;;;;;;0.73;0.73;;;2.60;99.90;;;;;;5086606;28;20036;-69
2022/01/15 10:54:57;;;;;;;0.63;0.63;;;2.50;99.90;;;;;;5086650;28;20039;-69
2022/01/15 10:57:35;;;;;;;0.20;0.20;;;2.10;99.90;;;;;;5086105;28;20048;-67
2022/01/15 11:00:11;;;;;;;0.98;0.98;;;2.20;99.90;;;;;;5073132;28;20029;-67
2022/01/15 11:02:41;;;;;;;0.20;0.20;;;2.30;99.90;;;;;;5072971;28;20036;-68
2022/01/15 11:05:50;;;;;;;0.52;0.52;;;2.40;99.90;;;;;;5074035;28;20500;-67
2022/01/15 11:08:27;;;;;;;1.65;1.55;;;2.40;99.90;;;;;;4996301;28;20597;-68
2022/01/15 11:10:57;;;;;;;0.47;0.47;;;2.10;99.90;;;;;;5012000;28;20100;-68
2022/01/15 11:13:47;;;;;;;0.28;0.28;;;2.00;99.90;;;;;;5011642;28;20388;-68
2022/01/15 11:16:16;;;;;;;2.15;0.93;;;1.90;99.90;;;;;;5011773;28;20062;-68
2022/01/15 11:18:51;;;;;;;2.60;2.40;;;2.10;99.90;;;;;;5011461;28;20149;-67
2022/01/15 11:21:19;;;;;;;0.50;0.50;;;2.00;99.90;;;;;;4995921;28;20087;-69
2022/01/15 11:23:48;;;;;;;0.10;0.10;;;2.20;99.90;;;;;;5011629;28;20030;-68
2022/01/15 11:26:21;;;;;;;0.10;0.10;;;2.30;99.90;;;;;;4995428;28;20046;-68
2022/01/15 11:28:47;;;;;;;0.10;0.10;;;2.40;99.90;;;;;;4995137;28;20064;-69
2022/01/15 11:31:34;;;;;;;3.00;0.55;;;2.50;99.90;;;;;;4995341;28;20757;-68
2022/01/15 11:34:04;;;;;;;1.30;1.20;;;2.40;99.90;;;;;;4995231;28;20026;-69
2022/01/15 11:36:43;;;;;;;2.57;1.80;;;2.30;99.90;;;;;;5011548;28;20505;-68
2022/01/15 11:39:14;;;;;;;1.00;1.00;;;2.30;99.90;;;;;;5039198;28;20295;-69
2022/01/15 11:41:48;;;;;;;2.40;1.95;;;2.40;99.90;;;;;;5072275;28;20047;-69
2022/01/15 11:44:16;;;;;;;0.75;0.75;;;2.30;99.90;;;;;;5073671;28;20072;-68
2022/01/15 11:46:47;;;;;;;1.05;0.93;;;2.30;99.90;;;;;;5072721;28;20428;-69
2022/01/15 11:49:37;;;;;;;0.13;0.13;;;2.40;99.90;;;;;;5073512;28;20037;-68
2022/01/15 11:52:08;;;;;;;4.22;0.68;;;2.50;99.90;;;;;;5071977;28;20039;-68
2022/01/15 11:55:05;;;;;;;0.30;0.30;;;2.40;99.90;;;;;;5073260;28;20068;-68
2022/01/15 11:57:34;;;;;;;0.28;0.28;;;2.50;99.90;;;;;;5075264;28;20038;-68
2022/01/15 12:00:15;;;;;;;0.55;0.55;;;2.60;99.90;;;;;;5071605;28;20044;-68
2022/01/15 12:02:41;;;;;;;0.20;0.20;;;2.80;99.90;;;;;;5073189;28;20129;-68
2022/01/15 12:05:19;;;;;;;0.30;0.30;;;2.90;99.90;;;;;;5071517;28;20477;-68
2022/01/15 12:08:11;;;;;;;0.20;0.20;;;2.90;99.90;;;;;;5072842;28;20492;-68
2022/01/15 12:10:51;;;;;;;0.38;0.38;;;3.00;99.90;;;;;;5071939;28;20036;-69
2022/01/15 12:13:34;;;;;;;3.15;1.95;;;3.20;99.90;;;;;;5072439;28;20028;-69
2022/01/15 12:16:34;;;;;;;7.22;2.63;;;3.10;99.90;;;;;;5071398;28;20112;-69
2022/01/15 12:19:00;;;;;;;1.85;1.45;;;3.00;99.90;;;;;;5071524;28;20028;-69
2022/01/15 12:21:48;;;;;;;6.53;1.00;;;3.20;99.90;;;;;;5071158;28;20433;-68
2022/01/15 12:24:36;;;;;;;0.10;0.10;;;3.10;99.90;;;;;;5072643;28;20176;-68
2022/01/15 12:27:10;;;;;;;1.48;1.38;;;2.70;99.90;;;;;;5071164;28;20067;-68
2022/01/15 12:29:37;;;;;;;0.15;0.15;;;2.90;99.90;;;;;;5072197;28;20535;-69
2022/01/15 12:32:03;;;;;;;1.67;1.58;;;2.80;99.90;;;;;;5071098;28;20409;-69
2022/01/15 12:34:29;;;;;;;0.47;0.47;;;2.90;99.90;;;;;;5072554;28;20032;-69
2022/01/15 12:36:55;;;;;;;0.82;0.82;;;3.00;99.90;;;;;;5071240;28;20045;-69
2022/01/15 12:39:33;;;;;;;5.50;0.75;;;3.10;99.90;;;;;;5070881;28;20111;-69
2022/01/15 12:41:59;;;;;;;1.65;1.10;;;3.20;99.90;;;;;;5072148;28;20397;-69
2022/01/15 12:44:24;;;;;;;0.25;0.25;;;3.10;99.90;;;;;;5072526;28;20028;-69
2022/01/15 12:46:57;;;;;;;0.10;0.10;;;3.20;99.90;;;;;;5071631;28;20052;-69
2022/01/15 12:49:36;;;;;;;1.35;0.47;;;3.20;99.90;;;;;;5072329;28;20028;-67
2022/01/15 12:52:11;;;;;;;0.63;0.63;;;3.30;99.90;;;;;;5087986;28;20017;-68
2022/01/15 12:54:36;;;;;;;0.08;0.08;;;3.30;99.90;;;;;;5071157;28;20043;-68
2022/01/15 12:57:03;;;;;;;0.28;0.28;;;3.40;99.90;;;;;;5087552;28;20029;-67
2022/01/15 12:59:29;;;;;;;0.30;0.30;;;3.30;99.90;;;;;;5070677;28;20473;-68
2022/01/15 13:01:54;;;;;;;0.75;0.75;;;3.40;99.90;;;;;;5071770;28;20030;-67
2022/01/15 13:04:20;;;;;;;0.10;0.10;;;3.40;99.90;;;;;;5070780;28;20115;-68
2022/01/15 13:06:59;;;;;;;1.20;1.17;;;3.30;99.90;;;;;;5066832;28;20490;-68
2022/01/15 13:09:42;;;;;;;0.38;0.38;;;3.30;99.90;;;;;;5052105;28;20025;-69
2022/01/15 13:12:11;;;;;;;0.57;0.57;;;3.30;99.90;;;;;;5051780;28;20033;-65
2022/01/15 13:14:42;;;;;;;0.32;0.32;;;3.30;99.90;;;;;;5051860;28;20036;-69
2022/01/15 13:17:27;;;;;;;0.82;0.82;;;3.30;99.90;;;;;;5033873;28;20040;-68
2022/01/15 13:19:52;;;;;;;1.90;1.80;;;3.20;99.90;;;;;;5051928;28;20576;-68
2022/01/15 13:22:23;;;;;;;1.08;0.90;;;3.20;99.90;;;;;;5050377;28;20111;-68
2022/01/15 13:24:58;;;;;;;0.40;0.32;;;3.10;99.90;;;;;;5050707;28;20033;-69
2022/01/15 13:27:24;;;;;;;0.10;0.10;;;3.10;99.90;;;;;;5051412;28;20121;-69
2022/01/15 13:29:50;;;;;;;1.27;0.93;;;3.10;99.90;;;;;;5050493;28;20029;-69